Terminal Aerodrome Forecast
Issued by NWS

Home | Current Version | Previous Version | Text Only | Print | Product List | Glossary Off
Versions: 1 2 3 4 5 6 7 8 9 10 11 12 13 14 15 16 17 18 19 20 21 22 23 24 25 26

555
FTUS45 KGGW 171753
TAFOLF
TAF
KOLF 171753Z 1718/1818 27008KT P6SM SCT100
     FM180600 06014KT 1/2SM SN SCT003 OVC010
     FM180800 06016KT 1SM -SN BLSN OVC010
     FM181300 02012KT 3SM -SN OVC015
     FM181700 01008KT P6SM BKN020=

USA.gov is the U.S. government's official web portal to all federal, state and local government web resources and services.